sensor_id;sensor_type;location;lat;lon;timestamp;pressure;altitude;pressure_sealevel;temperature;humidity
15674;BME280;7937;48.090;16.212;2023-03-26T00:00:51;97050.63;;;6.27;65.20
15674;BME280;7937;48.090;16.212;2023-03-26T00:03:55;96949.06;;;5.58;64.31
15674;BME280;7937;48.090;16.212;2023-03-26T00:06:59;96901.91;;;5.31;64.43
15674;BME280;7937;48.090;16.212;2023-03-26T00:10:06;97142.56;;;7.54;61.06
15674;BME280;7937;48.090;16.212;2023-03-26T00:13:18;97056.53;;;7.05;61.16
15674;BME280;7937;48.090;16.212;2023-03-26T00:16:20;96713.25;;;4.57;62.98
15674;BME280;7937;48.090;16.212;2023-03-26T00:19:25;97085.47;;;6.83;62.21
15674;BME280;7937;48.090;16.212;2023-03-26T00:22:30;96945.28;;;5.89;62.91
15674;BME280;7937;48.090;16.212;2023-03-26T00:25:37;97085.22;;;6.84;61.54
15674;BME280;7937;48.090;16.212;2023-03-26T00:28:46;96740.94;;;4.24;64.20
15674;BME280;7937;48.090;16.212;2023-03-26T00:32:21;96689.44;;;4.87;58.07
15674;BME280;7937;48.090;16.212;2023-03-26T00:35:34;96968.63;;;6.79;60.73
15674;BME280;7937;48.090;16.212;2023-03-26T00:38:37;97042.06;;;7.24;58.55
15674;BME280;7937;48.090;16.212;2023-03-26T00:41:42;97141.47;;;7.95;58.81
15674;BME280;7937;48.090;16.212;2023-03-26T00:44:45;97126.41;;;8.13;58.45
15674;BME280;7937;48.090;16.212;2023-03-26T00:47:47;97131.38;;;7.81;59.90
15674;BME280;7937;48.090;16.212;2023-03-26T00:50:49;97116.50;;;8.25;57.54
15674;BME280;7937;48.090;16.212;2023-03-26T00:53:51;97136.00;;;8.02;59.35
15674;BME280;7937;48.090;16.212;2023-03-26T00:56:54;97123.25;;;8.16;57.31
15674;BME280;7937;48.090;16.212;2023-03-26T00:59:56;97118.88;;;8.38;56.71
15674;BME280;7937;48.090;16.212;2023-03-26T01:03:03;97107.28;;;8.27;57.52
15674;BME280;7937;48.090;16.212;2023-03-26T01:06:08;97120.91;;;8.48;56.71
15674;BME280;7937;48.090;16.212;2023-03-26T01:09:17;97130.53;;;8.54;55.78
15674;BME280;7937;48.090;16.212;2023-03-26T01:12:23;97124.63;;;8.35;56.79
15674;BME280;7937;48.090;16.212;2023-03-26T01:15:25;97114.81;;;8.36;57.07
15674;BME280;7937;48.090;16.212;2023-03-26T01:18:31;97104.38;;;8.29;57.83
15674;BME280;7937;48.090;16.212;2023-03-26T01:21:35;97092.97;;;8.28;58.10
15674;BME280;7937;48.090;16.212;2023-03-26T01:24:40;97087.03;;;7.93;59.69
15674;BME280;7937;48.090;16.212;2023-03-26T01:27:51;97084.28;;;7.42;62.08
15674;BME280;7937;48.090;16.212;2023-03-26T01:31:02;97093.56;;;7.16;62.67
15674;BME280;7937;48.090;16.212;2023-03-26T01:40:46;97092.88;;;7.21;62.61
15674;BME280;7937;48.090;16.212;2023-03-26T01:43:53;97095.63;;;7.26;61.98
15674;BME280;7937;48.090;16.212;2023-03-26T01:47:00;97089.16;;;8.08;58.87
15674;BME280;7937;48.090;16.212;2023-03-26T01:50:02;97041.88;;;7.88;58.91
15674;BME280;7937;48.090;16.212;2023-03-26T01:53:05;97088.69;;;8.27;58.59
15674;BME280;7937;48.090;16.212;2023-03-26T01:59:50;97079.81;;;7.88;60.33
15674;BME280;7937;48.090;16.212;2023-03-26T02:03:00;97076.44;;;7.93;59.33
15674;BME280;7937;48.090;16.212;2023-03-26T02:09:21;97077.09;;;8.00;59.86
15674;BME280;7937;48.090;16.212;2023-03-26T02:12:26;97070.31;;;7.92;59.47
15674;BME280;7937;48.090;16.212;2023-03-26T02:15:30;97070.84;;;8.23;58.57
15674;BME280;7937;48.090;16.212;2023-03-26T02:18:32;97072.34;;;8.02;60.19
15674;BME280;7937;48.090;16.212;2023-03-26T02:21:37;97042.25;;;7.63;61.59
15674;BME280;7937;48.090;16.212;2023-03-26T02:24:40;97043.09;;;8.14;58.17
15674;BME280;7937;48.090;16.212;2023-03-26T02:27:43;97076.72;;;8.25;59.23
15674;BME280;7937;48.090;16.212;2023-03-26T02:30:46;97068.75;;;8.25;58.55
15674;BME280;7937;48.090;16.212;2023-03-26T02:33:49;97016.50;;;8.09;57.83
15674;BME280;7937;48.090;16.212;2023-03-26T02:36:51;97061.50;;;8.04;60.48
15674;BME280;7937;48.090;16.212;2023-03-26T02:39:53;97049.00;;;7.70;62.35
15674;BME280;7937;48.090;16.212;2023-03-26T02:43:03;97066.97;;;7.52;62.82
15674;BME280;7937;48.090;16.212;2023-03-26T02:46:06;97047.94;;;7.26;63.44
15674;BME280;7937;48.090;16.212;2023-03-26T02:49:37;97062.34;;;7.75;60.60
15674;BME280;7937;48.090;16.212;2023-03-26T02:52:39;97042.19;;;7.91;60.33
15674;BME280;7937;48.090;16.212;2023-03-26T02:55:41;97022.59;;;7.59;60.93
15674;BME280;7937;48.090;16.212;2023-03-26T02:58:44;97060.75;;;7.74;60.98
15674;BME280;7937;48.090;16.212;2023-03-26T03:01:47;97055.19;;;8.38;57.40
15674;BME280;7937;48.090;16.212;2023-03-26T03:04:51;97071.22;;;8.32;58.13
15674;BME280;7937;48.090;16.212;2023-03-26T03:08:06;97077.34;;;8.32;58.10
15674;BME280;7937;48.090;16.212;2023-03-26T03:11:13;97062.22;;;8.16;58.94
15674;BME280;7937;48.090;16.212;2023-03-26T03:14:19;97057.31;;;7.91;60.23
15674;BME280;7937;48.090;16.212;2023-03-26T03:17:21;97065.34;;;7.79;60.13
15674;BME280;7937;48.090;16.212;2023-03-26T03:20:23;97063.66;;;7.90;59.88
15674;BME280;7937;48.090;16.212;2023-03-26T03:23:25;97058.56;;;7.71;60.94
15674;BME280;7937;48.090;16.212;2023-03-26T03:26:36;97064.69;;;7.43;62.62
15674;BME280;7937;48.090;16.212;2023-03-26T03:30:01;97064.19;;;7.30;62.67
15674;BME280;7937;48.090;16.212;2023-03-26T03:33:15;97069.94;;;7.84;60.43
15674;BME280;7937;48.090;16.212;2023-03-26T03:36:21;97080.41;;;7.62;61.28
15674;BME280;7937;48.090;16.212;2023-03-26T03:39:33;97048.63;;;7.79;60.21
15674;BME280;7937;48.090;16.212;2023-03-26T03:42:36;97071.94;;;7.48;62.40
15674;BME280;7937;48.090;16.212;2023-03-26T03:45:39;97029.91;;;7.85;59.08
15674;BME280;7937;48.090;16.212;2023-03-26T03:48:59;97058.19;;;7.96;59.88
15674;BME280;7937;48.090;16.212;2023-03-26T03:52:06;97065.97;;;7.69;60.33
15674;BME280;7937;48.090;16.212;2023-03-26T03:55:13;97073.03;;;7.64;60.67
15674;BME280;7937;48.090;16.212;2023-03-26T03:58:25;97018.69;;;7.49;60.45
15674;BME280;7937;48.090;16.212;2023-03-26T04:01:34;97060.13;;;7.84;59.57
15674;BME280;7937;48.090;16.212;2023-03-26T04:04:57;97058.03;;;7.86;60.06
15674;BME280;7937;48.090;16.212;2023-03-26T04:08:00;97063.28;;;7.98;59.01
15674;BME280;7937;48.090;16.212;2023-03-26T04:11:13;97078.50;;;7.74;60.56
15674;BME280;7937;48.090;16.212;2023-03-26T04:14:38;96985.16;;;7.27;60.23
15674;BME280;7937;48.090;16.212;2023-03-26T04:17:49;97060.13;;;8.01;58.86
15674;BME280;7937;48.090;16.212;2023-03-26T04:20:53;97065.28;;;8.24;57.49
15674;BME280;7937;48.090;16.212;2023-03-26T04:24:00;97068.81;;;7.96;59.01
15674;BME280;7937;48.090;16.212;2023-03-26T04:27:29;97038.03;;;8.12;56.99
15674;BME280;7937;48.090;16.212;2023-03-26T04:31:02;97051.72;;;8.04;58.65
15674;BME280;7937;48.090;16.212;2023-03-26T04:34:19;97062.53;;;7.86;59.40
15674;BME280;7937;48.090;16.212;2023-03-26T04:37:53;97067.63;;;7.59;60.60
15674;BME280;7937;48.090;16.212;2023-03-26T04:41:10;97062.81;;;7.72;59.73
15674;BME280;7937;48.090;16.212;2023-03-26T04:44:21;97065.53;;;7.61;60.30
15674;BME280;7937;48.090;16.212;2023-03-26T04:47:31;97068.97;;;7.90;58.23
15674;BME280;7937;48.090;16.212;2023-03-26T04:50:43;97062.69;;;7.79;59.48
15674;BME280;7937;48.090;16.212;2023-03-26T04:53:51;97074.06;;;7.63;59.45
15674;BME280;7937;48.090;16.212;2023-03-26T04:57:06;97045.81;;;8.02;57.72
15674;BME280;7937;48.090;16.212;2023-03-26T05:00:19;97067.53;;;7.99;58.46
15674;BME280;7937;48.090;16.212;2023-03-26T05:03:28;97074.59;;;8.10;57.69
15674;BME280;7937;48.090;16.212;2023-03-26T05:06:40;97056.19;;;8.20;56.81
15674;BME280;7937;48.090;16.212;2023-03-26T05:10:13;97066.97;;;8.31;56.87
15674;BME280;7937;48.090;16.212;2023-03-26T05:13:34;97072.28;;;8.14;58.00
15674;BME280;7937;48.090;16.212;2023-03-26T05:16:41;97076.06;;;8.01;58.41
15674;BME280;7937;48.090;16.212;2023-03-26T05:19:46;97072.38;;;8.19;57.34
15674;BME280;7937;48.090;16.212;2023-03-26T05:22:50;97049.84;;;8.21;57.63
15674;BME280;7937;48.090;16.212;2023-03-26T05:26:12;97059.97;;;8.24;57.88
15674;BME280;7937;48.090;16.212;2023-03-26T05:29:15;97058.44;;;8.12;58.66
15674;BME280;7937;48.090;16.212;2023-03-26T05:32:22;97053.78;;;8.02;59.09
15674;BME280;7937;48.090;16.212;2023-03-26T05:35:25;97062.47;;;8.14;58.60
15674;BME280;7937;48.090;16.212;2023-03-26T05:38:28;97067.13;;;8.07;59.30
15674;BME280;7937;48.090;16.212;2023-03-26T05:41:31;97046.44;;;8.38;57.46
15674;BME280;7937;48.090;16.212;2023-03-26T05:44:33;97061.59;;;8.25;59.45
15674;BME280;7937;48.090;16.212;2023-03-26T05:47:41;97057.09;;;8.09;59.82
15674;BME280;7937;48.090;16.212;2023-03-26T05:50:43;97056.28;;;8.09;60.24
15674;BME280;7937;48.090;16.212;2023-03-26T05:53:45;97014.38;;;7.77;60.97
15674;BME280;7937;48.090;16.212;2023-03-26T05:57:13;97060.50;;;8.38;59.18
15674;BME280;7937;48.090;16.212;2023-03-26T06:00:34;97074.53;;;8.56;58.21
15674;BME280;7937;48.090;16.212;2023-03-26T06:03:43;97037.63;;;8.20;59.47
15674;BME280;7937;48.090;16.212;2023-03-26T06:06:52;97089.81;;;8.32;59.49
15674;BME280;7937;48.090;16.212;2023-03-26T06:09:54;97082.97;;;8.19;60.40
15674;BME280;7937;48.090;16.212;2023-03-26T06:12:57;97085.00;;;8.28;59.98
15674;BME280;7937;48.090;16.212;2023-03-26T06:15:59;97094.75;;;8.40;59.69
15674;BME280;7937;48.090;16.212;2023-03-26T06:19:09;97103.78;;;8.27;60.38
15674;BME280;7937;48.090;16.212;2023-03-26T06:22:34;97097.44;;;8.78;57.98
15674;BME280;7937;48.090;16.212;2023-03-26T06:26:14;97092.97;;;8.62;58.77
15674;BME280;7937;48.090;16.212;2023-03-26T06:29:37;97103.97;;;8.71;58.81
15674;BME280;7937;48.090;16.212;2023-03-26T06:32:45;97100.06;;;8.95;56.89
15674;BME280;7937;48.090;16.212;2023-03-26T06:35:52;97108.06;;;8.78;57.80
15674;BME280;7937;48.090;16.212;2023-03-26T06:38:54;97116.72;;;8.91;57.46
15674;BME280;7937;48.090;16.212;2023-03-26T06:41:57;97122.06;;;8.74;57.23
15674;BME280;7937;48.090;16.212;2023-03-26T06:45:17;97113.22;;;8.68;57.76
15674;BME280;7937;48.090;16.212;2023-03-26T06:48:39;97121.28;;;8.73;58.37
15674;BME280;7937;48.090;16.212;2023-03-26T06:51:51;97124.88;;;8.84;56.66
15674;BME280;7937;48.090;16.212;2023-03-26T06:55:13;97137.25;;;8.95;57.64
15674;BME280;7937;48.090;16.212;2023-03-26T06:58:33;97118.97;;;9.21;56.10
15674;BME280;7937;48.090;16.212;2023-03-26T07:02:11;97117.31;;;9.15;55.43
15674;BME280;7937;48.090;16.212;2023-03-26T07:05:33;97106.25;;;9.45;54.85
15674;BME280;7937;48.090;16.212;2023-03-26T07:08:54;97114.78;;;9.47;54.98
15674;BME280;7937;48.090;16.212;2023-03-26T07:12:18;97079.19;;;9.48;53.46
15674;BME280;7937;48.090;16.212;2023-03-26T07:15:38;97031.28;;;9.21;53.86
15674;BME280;7937;48.090;16.212;2023-03-26T07:19:00;97096.81;;;9.81;52.93
15674;BME280;7937;48.090;16.212;2023-03-26T07:22:14;97088.88;;;9.86;52.92
15674;BME280;7937;48.090;16.212;2023-03-26T07:25:40;97062.75;;;9.51;53.73
15674;BME280;7937;48.090;16.212;2023-03-26T07:29:12;97089.47;;;10.20;51.77
15674;BME280;7937;48.090;16.212;2023-03-26T07:32:53;97096.75;;;10.30;50.99
15674;BME280;7937;48.090;16.212;2023-03-26T07:36:27;96892.16;;;9.05;50.84
15674;BME280;7937;48.090;16.212;2023-03-26T07:40:07;97064.97;;;10.23;51.32
15674;BME280;7937;48.090;16.212;2023-03-26T07:47:23;97075.78;;;10.81;52.47
15674;BME280;7937;48.090;16.212;2023-03-26T07:50:57;97081.25;;;11.06;49.83
15674;BME280;7937;48.090;16.212;2023-03-26T07:54:19;97073.97;;;10.92;50.45
15674;BME280;7937;48.090;16.212;2023-03-26T08:05:00;97052.91;;;11.53;48.33
15674;BME280;7937;48.090;16.212;2023-03-26T08:08:52;97055.66;;;11.88;46.05
15674;BME280;7937;48.090;16.212;2023-03-26T08:19:54;97061.03;;;12.24;45.91
15674;BME280;7937;48.090;16.212;2023-03-26T08:22:39;97066.63;;;12.38;45.39
15674;BME280;7937;48.090;16.212;2023-03-26T08:32:28;97051.69;;;12.22;43.75
15674;BME280;7937;48.090;16.212;2023-03-26T08:35:31;97047.13;;;12.43;42.89
15674;BME280;7937;48.090;16.212;2023-03-26T08:38:36;97032.38;;;12.65;41.62
15674;BME280;7937;48.090;16.212;2023-03-26T08:42:46;97036.69;;;12.56;41.76
15674;BME280;7937;48.090;16.212;2023-03-26T08:46:11;96935.28;;;11.85;42.03
15674;BME280;7937;48.090;16.212;2023-03-26T08:52:31;96935.00;;;11.92;42.93
15674;BME280;7937;48.090;16.212;2023-03-26T08:55:51;97048.41;;;12.65;42.56
15674;BME280;7937;48.090;16.212;2023-03-26T09:16:52;96976.25;;;12.81;40.42
15674;BME280;7937;48.090;16.212;2023-03-26T09:24:08;96701.69;;;11.23;39.88
15674;BME280;7937;48.090;16.212;2023-03-26T09:34:30;96945.66;;;13.02;38.99
15674;BME280;7937;48.090;16.212;2023-03-26T09:42:02;96936.69;;;13.32;38.34
15674;BME280;7937;48.090;16.212;2023-03-26T10:08:44;96703.03;;;12.50;36.84
15674;BME280;7937;48.090;16.212;2023-03-26T10:15:20;96873.16;;;13.48;38.13
15674;BME280;7937;48.090;16.212;2023-03-26T10:18:45;96659.22;;;12.06;37.76
15674;BME280;7937;48.090;16.212;2023-03-26T10:25:19;96812.66;;;13.52;36.87
15674;BME280;7937;48.090;16.212;2023-03-26T10:32:40;96822.84;;;14.03;37.23
15674;BME280;7937;48.090;16.212;2023-03-26T10:35:53;96823.69;;;14.23;36.73
15674;BME280;7937;48.090;16.212;2023-03-26T10:39:31;96817.19;;;14.53;36.47
15674;BME280;7937;48.090;16.212;2023-03-26T10:47:00;96793.47;;;14.84;33.88
15674;BME280;7937;48.090;16.212;2023-03-26T10:50:18;96731.44;;;14.71;33.50
15674;BME280;7937;48.090;16.212;2023-03-26T10:56:43;96367.50;;;12.73;31.89
15674;BME280;7937;48.090;16.212;2023-03-26T10:59:46;96683.78;;;14.68;32.39
15674;BME280;7937;48.090;16.212;2023-03-26T11:03:15;96747.03;;;15.35;32.66
15674;BME280;7937;48.090;16.212;2023-03-26T11:09:43;96741.00;;;15.43;33.47
15674;BME280;7937;48.090;16.212;2023-03-26T11:13:11;96753.03;;;15.45;32.94
15674;BME280;7937;48.090;16.212;2023-03-26T11:20:06;96724.47;;;15.36;31.52
15674;BME280;7937;48.090;16.212;2023-03-26T11:23:33;96726.00;;;15.09;32.45
15674;BME280;7937;48.090;16.212;2023-03-26T11:26:55;96718.09;;;15.32;31.49
15674;BME280;7937;48.090;16.212;2023-03-26T11:33:51;96708.13;;;15.05;34.12
15674;BME280;7937;48.090;16.212;2023-03-26T11:36:57;96698.28;;;15.00;33.29
15674;BME280;7937;48.090;16.212;2023-03-26T11:40:17;96698.97;;;15.06;33.57
15674;BME280;7937;48.090;16.212;2023-03-26T11:43:30;96698.09;;;15.10;32.97
15674;BME280;7937;48.090;16.212;2023-03-26T11:46:37;96692.50;;;15.07;32.33
15674;BME280;7937;48.090;16.212;2023-03-26T11:49:41;96646.97;;;14.74;33.01
15674;BME280;7937;48.090;16.212;2023-03-26T11:52:45;96683.09;;;15.09;32.67
15674;BME280;7937;48.090;16.212;2023-03-26T11:55:58;96634.09;;;14.90;32.62
15674;BME280;7937;48.090;16.212;2023-03-26T11:59:20;96636.97;;;15.07;31.85
15674;BME280;7937;48.090;16.212;2023-03-26T12:02:27;96649.31;;;15.22;31.96
15674;BME280;7937;48.090;16.212;2023-03-26T12:05:30;96639.97;;;15.06;32.58
15674;BME280;7937;48.090;16.212;2023-03-26T12:08:38;96636.97;;;15.07;31.96
15674;BME280;7937;48.090;16.212;2023-03-26T12:11:46;96642.44;;;15.02;33.23
15674;BME280;7937;48.090;16.212;2023-03-26T12:14:49;96647.91;;;15.11;30.48
15674;BME280;7937;48.090;16.212;2023-03-26T12:17:55;96640.19;;;15.23;30.08
15674;BME280;7937;48.090;16.212;2023-03-26T12:21:03;96645.63;;;15.04;30.82
15674;BME280;7937;48.090;16.212;2023-03-26T12:24:28;96627.84;;;15.22;29.88
15674;BME280;7937;48.090;16.212;2023-03-26T12:27:31;96623.56;;;15.07;30.72
15674;BME280;7937;48.090;16.212;2023-03-26T12:30:35;96596.13;;;14.96;30.00
15674;BME280;7937;48.090;16.212;2023-03-26T12:33:38;96614.53;;;15.17;30.27
15674;BME280;7937;48.090;16.212;2023-03-26T12:36:47;96607.91;;;15.28;30.88
15674;BME280;7937;48.090;16.212;2023-03-26T12:40:49;96605.41;;;15.45;30.92
15674;BME280;7937;48.090;16.212;2023-03-26T12:43:41;96602.34;;;15.38;31.88
15674;BME280;7937;48.090;16.212;2023-03-26T12:47:14;96597.25;;;15.37;30.56
15674;BME280;7937;48.090;16.212;2023-03-26T12:57:57;96565.06;;;15.64;29.23
15674;BME280;7937;48.090;16.212;2023-03-26T13:04:51;96551.09;;;16.12;29.25
15674;BME280;7937;48.090;16.212;2023-03-26T13:18:30;96534.59;;;15.69;29.50
15674;BME280;7937;48.090;16.212;2023-03-26T13:21:48;96534.00;;;15.58;28.74
15674;BME280;7937;48.090;16.212;2023-03-26T13:25:51;96502.19;;;15.65;28.80
15674;BME280;7937;48.090;16.212;2023-03-26T13:35:58;96532.13;;;15.59;30.97
15674;BME280;7937;48.090;16.212;2023-03-26T13:43:02;96516.41;;;15.66;30.66
15674;BME280;7937;48.090;16.212;2023-03-26T13:49:17;96505.97;;;15.51;31.21
15674;BME280;7937;48.090;16.212;2023-03-26T13:52:43;96498.47;;;15.25;32.32
15674;BME280;7937;48.090;16.212;2023-03-26T13:55:50;96490.34;;;15.16;31.68
15674;BME280;7937;48.090;16.212;2023-03-26T13:59:00;96472.78;;;15.10;31.19
15674;BME280;7937;48.090;16.212;2023-03-26T14:02:09;96463.94;;;15.10;31.96
15674;BME280;7937;48.090;16.212;2023-03-26T14:05:24;96449.22;;;15.07;31.71
15674;BME280;7937;48.090;16.212;2023-03-26T14:08:36;96428.19;;;15.01;31.33
15674;BME280;7937;48.090;16.212;2023-03-26T14:15:03;96403.25;;;15.00;32.68
15674;BME280;7937;48.090;16.212;2023-03-26T14:22:00;96427.38;;;15.14;32.17
15674;BME280;7937;48.090;16.212;2023-03-26T14:25:54;96427.13;;;15.38;32.04
15674;BME280;7937;48.090;16.212;2023-03-26T14:29:04;96414.44;;;15.16;34.25
15674;BME280;7937;48.090;16.212;2023-03-26T14:32:25;96411.94;;;15.19;33.65
15674;BME280;7937;48.090;16.212;2023-03-26T14:42:02;96398.84;;;15.18;34.66
15674;BME280;7937;48.090;16.212;2023-03-26T14:52:28;96397.19;;;15.08;35.40
15674;BME280;7937;48.090;16.212;2023-03-26T14:59:30;96386.16;;;15.10;35.79
15674;BME280;7937;48.090;16.212;2023-03-26T15:03:01;96387.28;;;14.95;37.41
15674;BME280;7937;48.090;16.212;2023-03-26T15:21:23;96387.03;;;14.69;39.01
15674;BME280;7937;48.090;16.212;2023-03-26T15:24:59;96394.56;;;14.67;39.12
15674;BME280;7937;48.090;16.212;2023-03-26T15:28:31;96389.91;;;14.59;39.65
15674;BME280;7937;48.090;16.212;2023-03-26T15:35:25;96413.13;;;14.50;37.06
15674;BME280;7937;48.090;16.212;2023-03-26T15:42:26;96417.63;;;14.22;36.27
15674;BME280;7937;48.090;16.212;2023-03-26T15:49:05;96414.63;;;13.96;37.47
15674;BME280;7937;48.090;16.212;2023-03-26T15:52:23;96416.19;;;13.64;38.19
15674;BME280;7937;48.090;16.212;2023-03-26T15:55:28;96423.25;;;13.41;39.27
15674;BME280;7937;48.090;16.212;2023-03-26T15:58:43;96425.06;;;13.27;39.69
15674;BME280;7937;48.090;16.212;2023-03-26T16:11:58;96433.34;;;13.06;41.68
15674;BME280;7937;48.090;16.212;2023-03-26T16:24:42;96435.03;;;12.78;43.17
15674;BME280;7937;48.090;16.212;2023-03-26T16:27:45;96435.47;;;12.67;43.56
15674;BME280;7937;48.090;16.212;2023-03-26T16:31:22;96416.69;;;12.48;45.91
15674;BME280;7937;48.090;16.212;2023-03-26T16:34:50;96423.50;;;12.35;46.56
15674;BME280;7937;48.090;16.212;2023-03-26T16:38:10;96396.00;;;12.10;45.48
15674;BME280;7937;48.090;16.212;2023-03-26T16:41:17;96402.66;;;11.84;46.80
15674;BME280;7937;48.090;16.212;2023-03-26T16:45:04;96423.72;;;11.85;46.70
15674;BME280;7937;48.090;16.212;2023-03-26T16:48:15;96417.19;;;11.68;46.97
15674;BME280;7937;48.090;16.212;2023-03-26T16:58:34;96429.66;;;11.43;47.75
15674;BME280;7937;48.090;16.212;2023-03-26T17:01:45;96432.94;;;11.30;48.23
15674;BME280;7937;48.090;16.212;2023-03-26T17:04:54;96407.19;;;11.10;48.40
15674;BME280;7937;48.090;16.212;2023-03-26T17:29:13;96439.28;;;10.90;49.72
15674;BME280;7937;48.090;16.212;2023-03-26T17:32:19;96441.63;;;11.01;49.68
15674;BME280;7937;48.090;16.212;2023-03-26T17:35:45;96438.75;;;10.88;50.33
15674;BME280;7937;48.090;16.212;2023-03-26T17:41:54;96435.31;;;10.82;50.32
15674;BME280;7937;48.090;16.212;2023-03-26T17:45:17;96434.28;;;10.73;50.84
15674;BME280;7937;48.090;16.212;2023-03-26T17:48:22;96445.78;;;10.63;51.85
15674;BME280;7937;48.090;16.212;2023-03-26T17:51:53;96436.16;;;10.72;52.07
15674;BME280;7937;48.090;16.212;2023-03-26T17:54:59;96435.34;;;10.77;51.24
15674;BME280;7937;48.090;16.212;2023-03-26T17:58:27;96438.84;;;10.67;51.61
15674;BME280;7937;48.090;16.212;2023-03-26T18:01:35;96441.53;;;10.57;52.35
15674;BME280;7937;48.090;16.212;2023-03-26T18:04:42;96443.69;;;10.55;52.38
15674;BME280;7937;48.090;16.212;2023-03-26T18:11:26;96438.91;;;10.47;52.44
15674;BME280;7937;48.090;16.212;2023-03-26T18:14:56;96446.44;;;10.35;53.02
15674;BME280;7937;48.090;16.212;2023-03-26T18:18:26;96437.38;;;10.36;52.86
15674;BME280;7937;48.090;16.212;2023-03-26T18:21:38;96446.94;;;10.42;52.20
15674;BME280;7937;48.090;16.212;2023-03-26T18:24:50;96434.94;;;10.34;52.85
15674;BME280;7937;48.090;16.212;2023-03-26T18:27:56;96432.31;;;10.29;53.05
15674;BME280;7937;48.090;16.212;2023-03-26T18:31:18;96430.44;;;10.19;54.05
15674;BME280;7937;48.090;16.212;2023-03-26T18:34:23;96425.16;;;10.04;54.70
15674;BME280;7937;48.090;16.212;2023-03-26T18:37:32;96416.38;;;9.93;54.75
15674;BME280;7937;48.090;16.212;2023-03-26T18:40:41;96418.25;;;9.88;55.33
15674;BME280;7937;48.090;16.212;2023-03-26T18:43:47;96422.00;;;9.81;55.11
15674;BME280;7937;48.090;16.212;2023-03-26T18:46:55;96413.47;;;9.74;56.36
15674;BME280;7937;48.090;16.212;2023-03-26T18:49:59;96404.19;;;9.82;56.07
15674;BME280;7937;48.090;16.212;2023-03-26T18:53:05;96398.31;;;9.80;56.05
15674;BME280;7937;48.090;16.212;2023-03-26T18:56:29;96398.06;;;9.71;56.86
15674;BME280;7937;48.090;16.212;2023-03-26T18:59:35;96394.63;;;9.76;56.71
15674;BME280;7937;48.090;16.212;2023-03-26T19:02:43;96386.38;;;9.72;56.81
15674;BME280;7937;48.090;16.212;2023-03-26T19:05:47;96373.06;;;9.67;56.87
15674;BME280;7937;48.090;16.212;2023-03-26T19:08:51;96332.97;;;9.33;57.05
15674;BME280;7937;48.090;16.212;2023-03-26T19:11:56;96367.22;;;9.45;57.86
15674;BME280;7937;48.090;16.212;2023-03-26T19:15:15;96359.00;;;9.41;58.38
15674;BME280;7937;48.090;16.212;2023-03-26T19:18:24;96348.63;;;9.40;58.80
15674;BME280;7937;48.090;16.212;2023-03-26T19:21:28;96348.38;;;9.31;58.72
15674;BME280;7937;48.090;16.212;2023-03-26T19:24:34;96342.53;;;9.29;58.54
15674;BME280;7937;48.090;16.212;2023-03-26T19:27:40;96335.91;;;9.21;59.77
15674;BME280;7937;48.090;16.212;2023-03-26T19:30:46;96343.03;;;9.11;60.05
15674;BME280;7937;48.090;16.212;2023-03-26T19:33:58;96354.22;;;8.97;60.27
15674;BME280;7937;48.090;16.212;2023-03-26T19:37:20;96354.19;;;8.92;60.70
15674;BME280;7937;48.090;16.212;2023-03-26T19:40:23;96354.44;;;8.86;60.74
15674;BME280;7937;48.090;16.212;2023-03-26T19:43:31;96333.94;;;8.66;60.95
15674;BME280;7937;48.090;16.212;2023-03-26T19:46:43;96353.09;;;8.73;61.28
15674;BME280;7937;48.090;16.212;2023-03-26T19:50:26;96338.19;;;8.67;62.07
15674;BME280;7937;48.090;16.212;2023-03-26T19:53:32;96337.94;;;8.58;62.33
15674;BME280;7937;48.090;16.212;2023-03-26T19:56:36;96338.19;;;8.57;62.33
15674;BME280;7937;48.090;16.212;2023-03-26T19:59:39;96335.59;;;8.72;62.62
15674;BME280;7937;48.090;16.212;2023-03-26T20:02:44;96326.84;;;8.87;62.03
15674;BME280;7937;48.090;16.212;2023-03-26T20:05:48;96318.31;;;8.85;62.38
15674;BME280;7937;48.090;16.212;2023-03-26T20:08:53;96317.81;;;8.88;61.91
15674;BME280;7937;48.090;16.212;2023-03-26T20:11:58;96310.63;;;8.83;62.49
15674;BME280;7937;48.090;16.212;2023-03-26T20:15:01;96255.09;;;8.51;62.23
15674;BME280;7937;48.090;16.212;2023-03-26T20:18:20;96308.50;;;8.75;62.68
15674;BME280;7937;48.090;16.212;2023-03-26T20:21:24;96297.34;;;8.83;62.46
15674;BME280;7937;48.090;16.212;2023-03-26T20:24:27;96301.88;;;8.88;62.18
15674;BME280;7937;48.090;16.212;2023-03-26T20:27:31;96290.19;;;8.89;62.50
15674;BME280;7937;48.090;16.212;2023-03-26T20:30:34;96299.75;;;9.05;61.75
15674;BME280;7937;48.090;16.212;2023-03-26T20:33:39;96296.03;;;8.96;61.79
15674;BME280;7937;48.090;16.212;2023-03-26T20:36:46;96285.94;;;8.93;62.17
15674;BME280;7937;48.090;16.212;2023-03-26T20:39:49;96277.69;;;9.04;61.78
15674;BME280;7937;48.090;16.212;2023-03-26T20:42:51;96283.81;;;9.05;61.49
15674;BME280;7937;48.090;16.212;2023-03-26T20:45:54;96266.56;;;8.87;62.61
15674;BME280;7937;48.090;16.212;2023-03-26T20:49:00;96251.41;;;8.77;62.65
15674;BME280;7937;48.090;16.212;2023-03-26T20:52:02;96272.91;;;8.71;63.09
15674;BME280;7937;48.090;16.212;2023-03-26T20:55:05;96269.16;;;8.62;63.71
15674;BME280;7937;48.090;16.212;2023-03-26T20:58:12;96270.25;;;8.61;63.43
15674;BME280;7937;48.090;16.212;2023-03-26T21:01:16;96265.19;;;8.54;63.61
15674;BME280;7937;48.090;16.212;2023-03-26T21:04:19;96257.81;;;8.92;61.63
15674;BME280;7937;48.090;16.212;2023-03-26T21:07:21;96262.03;;;8.93;61.70
15674;BME280;7937;48.090;16.212;2023-03-26T21:10:27;96259.91;;;8.85;62.03
15674;BME280;7937;48.090;16.212;2023-03-26T21:13:42;96251.66;;;8.71;63.40
15674;BME280;7937;48.090;16.212;2023-03-26T21:16:46;96247.69;;;8.68;63.83
15674;BME280;7937;48.090;16.212;2023-03-26T21:19:48;96250.59;;;8.57;63.11
15674;BME280;7937;48.090;16.212;2023-03-26T21:26:20;96250.59;;;8.62;62.72
15674;BME280;7937;48.090;16.212;2023-03-26T21:29:26;96236.28;;;8.78;60.21
15674;BME280;7937;48.090;16.212;2023-03-26T21:32:28;96226.94;;;9.26;58.89
15674;BME280;7937;48.090;16.212;2023-03-26T21:35:32;96231.19;;;9.33;57.71
15674;BME280;7937;48.090;16.212;2023-03-26T21:38:36;96227.44;;;9.34;57.60